createdAt,value
2018-03-21T00:01:22.303Z,-4.30
2018-03-21T00:03:50.668Z,-4.40
2018-03-21T00:06:18.231Z,-4.40
2018-03-21T00:08:45.779Z,-4.50
2018-03-21T00:11:14.084Z,-4.60
2018-03-21T00:13:42.399Z,-4.70
2018-03-21T00:16:09.932Z,-4.70
2018-03-21T00:18:37.494Z,-4.80
2018-03-21T00:21:05.027Z,-4.80
2018-03-21T00:23:33.349Z,-5.00
2018-03-21T00:26:00.884Z,-5.00
2018-03-21T00:28:28.448Z,-5.00
2018-03-21T00:30:55.997Z,-5.00
2018-03-21T00:33:24.325Z,-5.00
2018-03-21T00:35:51.864Z,-5.00
2018-03-21T00:38:20.200Z,-5.00
2018-03-21T00:40:47.758Z,-5.00
2018-03-21T00:43:15.333Z,-5.00
2018-03-21T00:45:43.636Z,-5.10
2018-03-21T00:48:11.964Z,-5.10
2018-03-21T00:50:39.508Z,-5.10
2018-03-21T00:53:07.070Z,-5.10
2018-03-21T00:55:34.637Z,-5.20
2018-03-21T00:58:02.209Z,-5.20
2018-03-21T01:00:29.771Z,-5.20
2018-03-21T01:02:58.077Z,-5.20
2018-03-21T01:05:25.646Z,-5.30
2018-03-21T01:07:53.966Z,-5.40
2018-03-21T01:10:21.527Z,-5.40
2018-03-21T01:12:49.832Z,-5.40
2018-03-21T01:15:17.391Z,-5.40
2018-03-21T01:17:44.923Z,-5.50
2018-03-21T01:20:12.477Z,-5.50
2018-03-21T01:22:40.016Z,-5.50
2018-03-21T01:25:07.569Z,-5.50
2018-03-21T01:27:35.880Z,-5.50
2018-03-21T01:30:03.440Z,-5.50
2018-03-21T01:32:30.976Z,-5.50
2018-03-21T01:34:58.528Z,-5.50
2018-03-21T01:37:26.071Z,-5.50
2018-03-21T01:39:53.631Z,-5.60
2018-03-21T01:42:21.181Z,-5.60
2018-03-21T01:44:48.768Z,-5.60
2018-03-21T01:47:16.331Z,-5.60
2018-03-21T01:49:43.909Z,-5.70
2018-03-21T01:52:12.387Z,-5.70
2018-03-21T01:54:39.945Z,-5.70
2018-03-21T01:57:07.491Z,-5.70
2018-03-21T01:59:35.809Z,-5.60
2018-03-21T02:02:03.696Z,-5.60
2018-03-21T02:04:31.336Z,-5.60
2018-03-21T02:06:58.871Z,-5.60
2018-03-21T02:09:26.453Z,-5.70
2018-03-21T02:11:54.753Z,-5.80
2018-03-21T02:14:23.075Z,-5.90
2018-03-21T02:16:50.604Z,-5.90
2018-03-21T02:19:18.189Z,-5.90
2018-03-21T02:21:45.724Z,-5.90
2018-03-21T02:24:13.260Z,-5.90
2018-03-21T02:26:40.807Z,-5.90
2018-03-21T02:29:08.369Z,-5.80
2018-03-21T02:31:35.931Z,-5.90
2018-03-21T02:34:04.260Z,-5.00
2018-03-21T02:36:31.825Z,-5.90
2018-03-21T02:39:00.133Z,-6.00
2018-03-21T02:41:27.685Z,-6.00
2018-03-21T02:43:55.244Z,-6.00
2018-03-21T02:46:26.411Z,-6.00
2018-03-21T02:48:53.962Z,-6.00
2018-03-21T02:51:21.565Z,-6.10
2018-03-21T02:53:49.109Z,-6.10
2018-03-21T02:56:17.432Z,-6.10
2018-03-21T02:58:44.965Z,-6.20
2018-03-21T03:01:13.283Z,-6.30
2018-03-21T03:03:40.828Z,-6.30
2018-03-21T03:06:08.412Z,-6.30
2018-03-21T03:08:35.951Z,-6.30
2018-03-21T03:11:04.281Z,-6.30
2018-03-21T03:13:31.831Z,-6.40
2018-03-21T03:15:59.383Z,-6.30
2018-03-21T03:18:26.948Z,-6.40
2018-03-21T03:20:54.500Z,-6.50
2018-03-21T03:23:22.808Z,-6.50
2018-03-21T03:25:50.380Z,-6.60
2018-03-21T03:28:18.684Z,-6.60
2018-03-21T03:30:47.000Z,-6.60
2018-03-21T03:33:14.591Z,-6.60
2018-03-21T03:35:42.120Z,-6.60
2018-03-21T03:38:09.685Z,-6.70
2018-03-21T03:40:37.229Z,-6.70
2018-03-21T03:43:04.791Z,-6.70
2018-03-21T03:45:32.328Z,-6.70
2018-03-21T03:48:00.443Z,-6.70
2018-03-21T03:50:27.985Z,-6.70
2018-03-21T03:52:56.311Z,-6.70
2018-03-21T03:55:23.852Z,-6.80
2018-03-21T03:57:51.409Z,-6.80
2018-03-21T04:00:18.944Z,-6.80
2018-03-21T04:02:47.260Z,-6.80
2018-03-21T04:05:14.828Z,-6.90
2018-03-21T04:07:43.160Z,-6.90
2018-03-21T04:10:10.692Z,-6.90
2018-03-21T04:12:38.253Z,-6.90
2018-03-21T04:15:05.793Z,-6.90
2018-03-21T04:17:33.352Z,-6.90
2018-03-21T04:20:00.886Z,-6.90
2018-03-21T04:22:28.476Z,-6.90
2018-03-21T04:24:56.026Z,-6.90
2018-03-21T04:27:24.355Z,-6.90
2018-03-21T04:29:52.149Z,-7.00
2018-03-21T04:32:19.713Z,-6.90
2018-03-21T04:34:48.544Z,-7.00
2018-03-21T04:37:16.872Z,-7.00
2018-03-21T04:39:44.404Z,-7.00
2018-03-21T04:42:11.964Z,-7.00
2018-03-21T04:44:39.557Z,-7.00
2018-03-21T04:47:07.560Z,-7.00
2018-03-21T04:49:35.099Z,-7.00
2018-03-21T04:52:03.423Z,-7.10
2018-03-21T04:54:30.967Z,-7.10
2018-03-21T04:56:58.506Z,-7.10
2018-03-21T04:59:26.059Z,-7.00
2018-03-21T05:01:54.929Z,-7.00
2018-03-21T05:04:22.501Z,-7.10
2018-03-21T05:06:50.041Z,-7.00
2018-03-21T05:09:18.383Z,-7.00
2018-03-21T05:11:46.340Z,-7.00
2018-03-21T05:14:19.852Z,-6.90
2018-03-21T05:16:47.392Z,-6.90
2018-03-21T05:19:14.943Z,-6.80
2018-03-21T05:21:43.255Z,-6.60
2018-03-21T05:24:10.813Z,-6.60
2018-03-21T05:26:38.346Z,-6.50
2018-03-21T05:29:05.899Z,-6.40
2018-03-21T05:31:33.440Z,-6.40
2018-03-21T05:34:00.999Z,-6.40
2018-03-21T05:36:28.536Z,-6.30
2018-03-21T05:38:56.088Z,-6.30
2018-03-21T05:41:23.630Z,-6.30
2018-03-21T05:43:51.969Z,-6.20
2018-03-21T05:46:19.513Z,-6.20
2018-03-21T05:48:47.856Z,-6.00
2018-03-21T05:51:15.396Z,-6.00
2018-03-21T05:53:43.712Z,-5.80
2018-03-21T05:56:11.248Z,-5.80
2018-03-21T05:58:39.572Z,-5.70
2018-03-21T06:01:07.117Z,-5.80
2018-03-21T06:03:34.672Z,-5.70
2018-03-21T06:06:02.214Z,-5.60
2018-03-21T06:08:29.779Z,-5.40
2018-03-21T06:10:57.320Z,-5.00
2018-03-21T06:13:24.872Z,-4.20
2018-03-21T06:15:52.454Z,-3.40
2018-03-21T06:18:19.975Z,-2.60
2018-03-21T06:20:47.532Z,-1.90
2018-03-21T06:23:15.831Z,-0.90
2018-03-21T06:25:44.152Z,-0.60
2018-03-21T06:28:11.701Z,-0.60
2018-03-21T06:30:39.261Z,-0.20
2018-03-21T06:33:06.800Z,0.10
2018-03-21T06:35:34.360Z,0.50
2018-03-21T06:38:01.934Z,0.60
2018-03-21T06:40:29.467Z,0.60
2018-03-21T06:42:57.030Z,0.50
2018-03-21T06:45:25.496Z,0.70
2018-03-21T06:47:53.029Z,0.70
2018-03-21T06:50:21.355Z,0.70
2018-03-21T06:52:48.907Z,0.70
2018-03-21T06:55:17.228Z,0.60
2018-03-21T06:57:44.760Z,0.60
2018-03-21T07:00:12.316Z,0.70
2018-03-21T07:02:39.848Z,0.60
2018-03-21T07:05:08.189Z,0.70
2018-03-21T07:07:35.729Z,0.70
2018-03-21T07:10:03.284Z,0.60
2018-03-21T07:12:30.820Z,0.70
2018-03-21T07:15:10.246Z,0.70
2018-03-21T07:17:37.792Z,0.60
2018-03-21T07:20:05.349Z,0.70
2018-03-21T07:22:33.652Z,0.50
2018-03-21T07:25:01.224Z,0.50
2018-03-21T07:27:29.527Z,0.50
2018-03-21T07:29:57.832Z,0.50
2018-03-21T07:32:26.156Z,0.50
2018-03-21T07:34:53.744Z,0.50
2018-03-21T07:37:21.309Z,0.60
2018-03-21T07:39:48.856Z,0.80
2018-03-21T07:42:16.424Z,0.90
2018-03-21T07:44:43.969Z,1.10
2018-03-21T07:47:11.536Z,1.40
2018-03-21T07:49:39.088Z,1.40
2018-03-21T07:52:06.643Z,1.50
2018-03-21T07:54:34.176Z,1.80
2018-03-21T07:57:02.504Z,2.00
2018-03-21T07:59:30.060Z,2.00
2018-03-21T08:01:57.648Z,2.20
2018-03-21T08:04:25.195Z,2.50
2018-03-21T08:06:53.880Z,2.50
2018-03-21T08:09:21.481Z,2.70
2018-03-21T08:11:49.160Z,2.90
2018-03-21T08:14:16.726Z,3.10
2018-03-21T08:16:44.293Z,3.20
2018-03-21T08:19:12.603Z,3.40
2018-03-21T08:21:40.938Z,3.50
2018-03-21T08:24:08.497Z,3.50
2018-03-21T08:26:36.064Z,3.60
2018-03-21T08:29:05.246Z,3.70
2018-03-21T08:31:34.136Z,3.80
2018-03-21T08:34:02.101Z,3.90
2018-03-21T08:36:30.641Z,3.90
2018-03-21T08:38:58.173Z,4.00
2018-03-21T08:41:25.728Z,4.10
2018-03-21T08:43:54.165Z,4.20
2018-03-21T08:46:21.723Z,4.50
2018-03-21T08:48:50.128Z,4.30
2018-03-21T08:51:17.688Z,4.50
2018-03-21T08:53:46.540Z,4.60
2018-03-21T08:56:14.081Z,4.80
2018-03-21T08:58:41.636Z,5.00
2018-03-21T09:01:11.207Z,5.00
2018-03-21T09:03:38.761Z,5.20
2018-03-21T09:06:06.303Z,5.40
2018-03-21T09:08:33.849Z,5.50
2018-03-21T09:11:01.392Z,5.60
2018-03-21T09:13:28.956Z,5.40
2018-03-21T09:16:03.916Z,5.30
2018-03-21T09:18:31.480Z,5.30
2018-03-21T09:20:59.040Z,5.40
2018-03-21T09:23:26.595Z,5.60
2018-03-21T09:25:55.684Z,5.70
2018-03-21T09:28:23.248Z,5.60
2018-03-21T09:30:50.796Z,5.70
2018-03-21T09:33:18.362Z,5.50
2018-03-21T09:35:46.672Z,5.60
2018-03-21T09:38:15.004Z,5.60
2018-03-21T09:40:43.953Z,5.60
2018-03-21T09:43:11.504Z,5.40
2018-03-21T09:45:39.065Z,5.50
2018-03-21T09:48:07.392Z,5.70
2018-03-21T09:50:34.925Z,5.70
2018-03-21T09:53:04.916Z,5.70
2018-03-21T09:55:32.452Z,5.60
2018-03-21T09:58:00.423Z,5.50
2018-03-21T10:00:27.960Z,5.90
2018-03-21T10:02:55.523Z,6.10
2018-03-21T10:05:25.898Z,6.20
2018-03-21T10:07:53.518Z,6.20
2018-03-21T10:10:21.025Z,6.20
2018-03-21T10:12:48.564Z,6.10
2018-03-21T10:15:16.120Z,6.10
2018-03-21T10:17:44.437Z,6.40
2018-03-21T10:20:15.082Z,6.40
2018-03-21T10:22:42.645Z,6.50
2018-03-21T10:25:10.192Z,6.40
2018-03-21T10:27:37.720Z,6.30
2018-03-21T10:30:06.040Z,6.40
2018-03-21T10:32:35.296Z,6.40
2018-03-21T10:35:02.848Z,6.40
2018-03-21T10:37:30.386Z,6.50
2018-03-21T10:39:57.944Z,6.80
2018-03-21T10:42:25.501Z,7.00
2018-03-21T10:44:54.354Z,6.90
2018-03-21T10:47:21.904Z,6.80
2018-03-21T10:49:49.472Z,6.60
2018-03-21T10:52:17.826Z,6.60
2018-03-21T10:54:45.481Z,6.60
2018-03-21T10:57:13.018Z,6.70
2018-03-21T10:59:40.577Z,6.80
2018-03-21T11:02:13.948Z,6.50
2018-03-21T11:04:42.285Z,6.30
2018-03-21T11:07:09.843Z,6.30
2018-03-21T11:09:37.430Z,6.00
2018-03-21T11:12:04.975Z,6.00
2018-03-21T11:14:32.544Z,6.10
2018-03-21T11:17:00.072Z,6.20
2018-03-21T11:19:28.389Z,6.40
2018-03-21T11:21:55.943Z,6.40
2018-03-21T11:24:23.495Z,6.60
2018-03-21T11:26:52.792Z,6.70
2018-03-21T11:29:20.353Z,6.60
2018-03-21T11:31:47.895Z,6.10
2018-03-21T11:34:15.429Z,5.90
2018-03-21T11:36:42.976Z,6.20
2018-03-21T11:39:10.516Z,6.50
2018-03-21T11:41:38.073Z,6.60
2018-03-21T11:44:05.615Z,6.60
2018-03-21T11:46:33.168Z,6.50
2018-03-21T11:49:00.700Z,6.90
2018-03-21T11:51:28.252Z,7.20
2018-03-21T11:53:55.787Z,7.40
2018-03-21T11:56:24.107Z,8.00
2018-03-21T11:58:51.666Z,7.90
2018-03-21T12:01:19.984Z,7.70
2018-03-21T12:03:47.517Z,7.60
2018-03-21T12:06:15.074Z,7.80
2018-03-21T12:08:42.656Z,7.60
2018-03-21T12:11:10.180Z,7.50
2018-03-21T12:13:38.536Z,7.70
2018-03-21T12:16:06.088Z,7.50
2018-03-21T12:18:34.393Z,6.90
2018-03-21T12:21:02.710Z,7.00
2018-03-21T12:23:30.244Z,7.00
2018-03-21T12:25:57.796Z,7.30
2018-03-21T12:28:25.332Z,7.60
2018-03-21T12:30:52.875Z,7.70
2018-03-21T12:33:21.347Z,7.50
2018-03-21T12:35:48.904Z,7.20
2018-03-21T12:38:17.199Z,7.00
2018-03-21T12:40:44.781Z,7.00
2018-03-21T12:43:13.788Z,7.10
2018-03-21T12:45:41.657Z,7.00
2018-03-21T12:48:09.187Z,6.90
2018-03-21T12:50:37.496Z,7.20
2018-03-21T12:53:05.836Z,7.20
2018-03-21T12:55:33.368Z,7.20
2018-03-21T12:58:00.923Z,7.20
2018-03-21T13:00:28.452Z,7.20
2018-03-21T13:02:56.773Z,7.20
2018-03-21T13:05:24.334Z,7.20
2018-03-21T13:07:52.667Z,7.00
2018-03-21T13:10:20.236Z,7.00
2018-03-21T13:12:47.848Z,6.90
2018-03-21T13:15:16.369Z,6.80
2018-03-21T13:17:44.896Z,6.70
2018-03-21T13:20:13.204Z,6.50
2018-03-21T13:22:40.760Z,6.50
2018-03-21T13:25:08.293Z,6.60
2018-03-21T13:27:36.608Z,6.90
2018-03-21T13:30:04.176Z,6.90
2018-03-21T13:32:32.492Z,6.60
2018-03-21T13:35:00.065Z,6.60
2018-03-21T13:37:28.445Z,6.50
2018-03-21T13:39:56.712Z,6.50
2018-03-21T13:42:25.868Z,6.60
2018-03-21T13:44:53.421Z,6.70
2018-03-21T13:47:21.244Z,6.60
2018-03-21T13:49:48.829Z,6.60
2018-03-21T13:52:16.513Z,6.60
2018-03-21T13:54:44.056Z,6.50
2018-03-21T13:57:11.604Z,6.50
2018-03-21T13:59:39.133Z,6.50
2018-03-21T14:02:06.680Z,6.50
2018-03-21T14:04:35.903Z,6.40
2018-03-21T14:07:03.515Z,6.60
2018-03-21T14:09:31.052Z,6.50
2018-03-21T14:11:58.593Z,6.50
2018-03-21T14:14:26.143Z,6.50
2018-03-21T14:16:54.444Z,6.60
2018-03-21T14:19:24.193Z,6.50
2018-03-21T14:21:51.725Z,6.40
2018-03-21T14:24:20.750Z,6.50
2018-03-21T14:26:48.287Z,6.30
2018-03-21T14:29:16.604Z,6.50
2018-03-21T14:31:44.132Z,6.50
2018-03-21T14:34:11.736Z,6.50
2018-03-21T14:36:39.279Z,6.60
2018-03-21T14:39:06.828Z,6.50
2018-03-21T14:41:35.129Z,6.40
2018-03-21T14:44:03.455Z,6.30
2018-03-21T14:46:30.988Z,6.30
2018-03-21T14:49:00.509Z,6.20
2018-03-21T14:51:28.046Z,6.20
2018-03-21T14:53:55.604Z,6.10
2018-03-21T14:56:23.139Z,5.90
2018-03-21T14:58:51.848Z,5.80
2018-03-21T15:01:19.381Z,5.90
2018-03-21T15:03:46.948Z,6.00
2018-03-21T15:06:14.487Z,6.00
2018-03-21T15:08:42.049Z,5.90
2018-03-21T15:11:10.354Z,5.90
2018-03-21T15:13:39.217Z,5.90
2018-03-21T15:16:06.776Z,5.90
2018-03-21T15:18:34.331Z,5.80
2018-03-21T15:21:02.640Z,5.60
2018-03-21T15:23:30.982Z,5.50
2018-03-21T15:25:58.512Z,5.50
2018-03-21T15:28:26.098Z,5.40
2018-03-21T15:30:53.652Z,5.40
2018-03-21T15:33:21.184Z,5.30
2018-03-21T15:35:48.756Z,5.30
2018-03-21T15:38:17.065Z,5.20
2018-03-21T15:40:44.626Z,5.20
2018-03-21T15:43:12.155Z,5.20
2018-03-21T15:45:39.727Z,5.20
2018-03-21T15:48:07.263Z,5.20
2018-03-21T15:50:34.819Z,5.20
2018-03-21T15:53:02.354Z,5.20
2018-03-21T15:55:30.683Z,5.10
2018-03-21T15:57:58.224Z,5.00
2018-03-21T16:00:25.780Z,5.00
2018-03-21T16:02:53.321Z,5.00
2018-03-21T16:05:21.645Z,4.90
2018-03-21T16:07:49.176Z,4.90
2018-03-21T16:10:16.741Z,4.90
2018-03-21T16:12:44.272Z,4.90
2018-03-21T16:15:12.596Z,4.80
2018-03-21T16:17:40.153Z,4.80
2018-03-21T16:20:07.732Z,4.80
2018-03-21T16:22:35.849Z,4.80
2018-03-21T16:25:03.404Z,4.70
2018-03-21T16:27:30.956Z,4.70
2018-03-21T16:29:58.521Z,4.70
2018-03-21T16:32:26.060Z,4.70
2018-03-21T16:34:54.350Z,4.70
2018-03-21T16:37:22.733Z,4.60
2018-03-21T16:39:50.288Z,4.60
2018-03-21T16:42:17.843Z,4.60
2018-03-21T16:44:46.164Z,4.50
2018-03-21T16:47:13.704Z,4.40
2018-03-21T16:49:41.266Z,4.40
2018-03-21T16:52:08.827Z,4.40
2018-03-21T16:54:36.504Z,4.30
2018-03-21T16:57:04.098Z,4.30
2018-03-21T16:59:31.624Z,4.60
2018-03-21T17:01:59.183Z,4.20
2018-03-21T17:04:26.720Z,4.20
2018-03-21T17:06:55.058Z,4.20
2018-03-21T17:09:22.592Z,4.10
2018-03-21T17:11:50.144Z,4.10
2018-03-21T17:14:17.755Z,4.10
2018-03-21T17:16:45.320Z,4.10
2018-03-21T17:19:12.863Z,4.10
2018-03-21T17:21:40.440Z,4.00
2018-03-21T17:24:07.975Z,4.00
2018-03-21T17:26:35.527Z,4.00
2018-03-21T17:29:03.067Z,3.90
2018-03-21T17:31:31.389Z,3.80
2018-03-21T17:33:58.928Z,3.80
2018-03-21T17:36:26.477Z,3.80
2018-03-21T17:38:54.036Z,3.80
2018-03-21T17:41:22.355Z,3.70
2018-03-21T17:43:49.898Z,3.70
2018-03-21T17:46:17.467Z,3.60
2018-03-21T17:48:44.996Z,3.50
2018-03-21T17:51:13.540Z,3.50
2018-03-21T17:53:41.072Z,3.40
2018-03-21T17:56:08.650Z,3.40
2018-03-21T17:58:36.205Z,3.30
2018-03-21T18:01:03.792Z,3.20
2018-03-21T18:03:31.334Z,3.10
2018-03-21T18:05:58.875Z,3.10
2018-03-21T18:08:26.483Z,3.10
2018-03-21T18:10:54.844Z,3.00
2018-03-21T18:13:22.400Z,3.00
2018-03-21T18:15:49.953Z,3.00
2018-03-21T18:18:18.311Z,2.90
2018-03-21T18:20:45.851Z,2.90
2018-03-21T18:23:13.400Z,2.90
2018-03-21T18:25:40.928Z,2.90
2018-03-21T18:28:08.479Z,2.80
2018-03-21T18:30:36.782Z,2.70
2018-03-21T18:33:05.107Z,2.70
2018-03-21T18:35:32.666Z,2.60
2018-03-21T18:38:00.773Z,2.60
2018-03-21T18:40:29.077Z,2.50
2018-03-21T18:42:57.401Z,2.50
2018-03-21T18:45:24.958Z,2.50
2018-03-21T18:47:53.293Z,2.50
2018-03-21T18:50:20.827Z,2.50
2018-03-21T18:52:48.386Z,2.40
2018-03-21T18:55:15.949Z,2.50
2018-03-21T18:57:43.525Z,2.50
2018-03-21T19:00:11.061Z,2.50
2018-03-21T19:02:38.612Z,2.50
2018-03-21T19:05:06.140Z,2.50
2018-03-21T19:07:34.457Z,2.50
2018-03-21T19:10:02.775Z,2.50
2018-03-21T19:12:30.451Z,2.50
2018-03-21T19:14:58.028Z,2.50
2018-03-21T19:17:25.590Z,2.50
2018-03-21T19:19:53.167Z,2.50
2018-03-21T19:22:20.741Z,2.50
2018-03-21T19:24:48.288Z,2.50
2018-03-21T19:27:15.826Z,2.50
2018-03-21T19:29:44.148Z,2.50
2018-03-21T19:32:11.685Z,2.40
2018-03-21T19:34:39.277Z,2.40
2018-03-21T19:37:06.908Z,2.40
2018-03-21T19:39:34.459Z,2.50
2018-03-21T19:42:02.012Z,2.40
2018-03-21T19:44:30.338Z,2.40
2018-03-21T19:46:57.900Z,2.40
2018-03-21T19:49:26.220Z,2.40
2018-03-21T19:52:00.164Z,2.40
2018-03-21T19:54:31.394Z,2.40
2018-03-21T19:56:58.924Z,2.40
2018-03-21T19:59:26.522Z,2.40
2018-03-21T20:01:54.056Z,2.40
2018-03-21T20:04:21.869Z,2.40
2018-03-21T20:06:49.691Z,2.40
2018-03-21T20:09:17.250Z,2.40
2018-03-21T20:11:51.301Z,2.40
2018-03-21T20:14:20.025Z,2.30
2018-03-21T20:16:47.556Z,2.40
2018-03-21T20:19:15.135Z,2.40
2018-03-21T20:21:42.704Z,2.30
2018-03-21T20:24:10.259Z,2.30
2018-03-21T20:26:38.556Z,2.30
2018-03-21T20:29:07.876Z,2.30
2018-03-21T20:31:35.411Z,2.30
2018-03-21T20:36:36.765Z,2.30
2018-03-21T20:39:04.347Z,2.30
2018-03-21T20:41:31.880Z,2.20
2018-03-21T20:43:59.442Z,2.20
2018-03-21T20:46:26.981Z,2.10
2018-03-21T20:48:54.517Z,2.10
2018-03-21T20:51:22.841Z,2.10
2018-03-21T20:53:50.368Z,2.10
2018-03-21T20:56:17.961Z,2.10
2018-03-21T20:58:45.505Z,2.10
2018-03-21T21:01:13.061Z,2.10
2018-03-21T21:03:40.600Z,2.10
2018-03-21T21:06:08.152Z,2.10
2018-03-21T21:08:35.692Z,2.10
2018-03-21T21:11:04.020Z,2.00
2018-03-21T21:13:31.553Z,2.00
2018-03-21T21:15:59.104Z,2.10
2018-03-21T21:18:26.636Z,2.00
2018-03-21T21:20:54.188Z,2.00
2018-03-21T21:23:21.720Z,2.00
2018-03-21T21:25:50.040Z,2.00
2018-03-21T21:28:17.576Z,2.00
2018-03-21T21:30:45.134Z,2.00
2018-03-21T21:33:12.684Z,2.00
2018-03-21T21:35:40.235Z,2.00
2018-03-21T21:38:07.769Z,1.90
2018-03-21T21:40:35.312Z,1.90
2018-03-21T21:43:02.851Z,1.90
2018-03-21T21:45:30.402Z,1.90
2018-03-21T21:47:57.956Z,1.90
2018-03-21T21:50:25.504Z,1.90
2018-03-21T21:52:53.036Z,1.90
2018-03-21T21:55:21.356Z,1.90
2018-03-21T21:57:49.664Z,1.90
2018-03-21T22:00:17.984Z,1.90
2018-03-21T22:02:45.516Z,1.90
2018-03-21T22:05:13.047Z,1.90
2018-03-21T22:07:41.372Z,2.00
2018-03-21T22:10:08.906Z,1.90
2018-03-21T22:12:38.536Z,1.90
2018-03-21T22:15:06.067Z,1.90
2018-03-21T22:17:33.623Z,1.90
2018-03-21T22:20:01.927Z,2.00
2018-03-21T22:22:30.246Z,2.00
2018-03-21T22:24:57.784Z,1.90
2018-03-21T22:27:25.416Z,1.90
2018-03-21T22:29:52.959Z,1.90
2018-03-21T22:32:20.513Z,1.90
2018-03-21T22:34:48.039Z,1.90
2018-03-21T22:37:15.587Z,1.90
2018-03-21T22:39:43.111Z,1.90
2018-03-21T22:42:11.419Z,1.90
2018-03-21T22:44:39.711Z,1.90
2018-03-21T22:47:08.024Z,2.00
2018-03-21T22:49:36.318Z,2.00
2018-03-21T22:52:04.638Z,2.00
2018-03-21T22:54:32.205Z,2.00
2018-03-21T22:56:59.733Z,2.00
2018-03-21T22:59:27.264Z,2.00
2018-03-21T23:01:54.814Z,2.00
2018-03-21T23:04:22.348Z,2.00
2018-03-21T23:06:50.668Z,1.90
2018-03-21T23:09:18.209Z,2.00
2018-03-21T23:11:45.760Z,1.90
2018-03-21T23:14:13.298Z,1.90
2018-03-21T23:16:41.615Z,1.70
2018-03-21T23:19:09.148Z,1.70
2018-03-21T23:21:36.705Z,1.60
2018-03-21T23:24:04.248Z,1.50
2018-03-21T23:26:32.552Z,1.30
2018-03-21T23:29:00.868Z,1.20
2018-03-21T23:31:28.406Z,1.20
2018-03-21T23:33:55.956Z,1.20
2018-03-21T23:36:23.492Z,1.10
2018-03-21T23:38:51.055Z,1.10
2018-03-21T23:41:18.596Z,1.10
2018-03-21T23:43:46.164Z,1.10
2018-03-21T23:46:14.466Z,1.10
2018-03-21T23:48:42.793Z,1.10
2018-03-21T23:51:10.334Z,1.00
2018-03-21T23:53:37.888Z,1.00
2018-03-21T23:56:05.426Z,1.00
2018-03-21T23:58:32.984Z,1.00
